createdAt,value
2022-10-26T00:00:18.205Z,100334.63
2022-10-26T00:15:10.095Z,100343.30
2022-10-26T00:30:01.794Z,100333.90
2022-10-26T00:44:59.230Z,100340.55
2022-10-26T00:59:55.119Z,100335.29
2022-10-26T01:14:46.168Z,100325.55
2022-10-26T01:30:15.980Z,100283.46
2022-10-26T01:45:13.025Z,100307.52
2022-10-26T02:00:10.227Z,100310.97
2022-10-26T02:15:04.549Z,100334.50
2022-10-26T02:29:56.205Z,100344.21
2022-10-26T02:44:49.853Z,100366.22
2022-10-26T02:59:44.455Z,100372.02
2022-10-26T03:14:35.494Z,100364.16
2022-10-26T03:29:27.169Z,100372.54
2022-10-26T03:44:18.263Z,100371.77
2022-10-26T03:59:09.844Z,100352.63
2022-10-26T04:14:01.288Z,100343.91
2022-10-26T04:28:52.623Z,100314.00
2022-10-26T04:43:44.351Z,100309.80
2022-10-26T04:58:36.569Z,100337.86
2022-10-26T05:13:28.257Z,100359.20
2022-10-26T05:28:20.511Z,100381.02
2022-10-26T05:43:12.825Z,100397.73
2022-10-26T05:58:05.253Z,100423.41
2022-10-26T06:12:56.740Z,100442.91
2022-10-26T06:28:03.329Z,100453.99
2022-10-26T06:43:00.662Z,100455.67
2022-10-26T06:57:52.456Z,100474.27
2022-10-26T07:12:43.765Z,100478.95
2022-10-26T07:27:35.480Z,100502.44
2022-10-26T07:42:26.617Z,100513.52
2022-10-26T07:57:18.715Z,100531.34
2022-10-26T08:12:11.139Z,100557.28
2022-10-26T08:27:03.664Z,100573.23
2022-10-26T08:41:55.908Z,100570.13
2022-10-26T08:56:50.715Z,100590.47
2022-10-26T09:12:02.925Z,100590.91
2022-10-26T09:27:23.566Z,100601.56
2022-10-26T09:42:27.673Z,100622.52
2022-10-26T09:57:25.188Z,100647.42
2022-10-26T10:12:18.237Z,100664.09
2022-10-26T10:27:13.460Z,100675.72
2022-10-26T10:42:23.228Z,100692.34
2022-10-26T10:57:21.790Z,100698.59
2022-10-26T11:12:19.536Z,100713.47
2022-10-26T11:27:17.730Z,100713.25
2022-10-26T11:42:15.930Z,100719.39
2022-10-26T11:57:11.239Z,100722.42
2022-10-26T12:12:07.771Z,100727.02
2022-10-26T12:27:04.847Z,100731.65
2022-10-26T12:41:59.223Z,100740.67
2022-10-26T12:57:00.986Z,100746.84
2022-10-26T13:11:57.772Z,100744.42
2022-10-26T13:27:05.305Z,100751.90
2022-10-26T13:42:02.833Z,100757.42
2022-10-26T13:56:54.211Z,100762.44
2022-10-26T14:11:44.909Z,100776.52
2022-10-26T14:26:39.211Z,100792.13
2022-10-26T14:41:35.023Z,100795.60
2022-10-26T14:56:37.183Z,100802.03
2022-10-26T15:11:33.274Z,100813.09
2022-10-26T15:26:24.796Z,100828.44
2022-10-26T15:41:19.004Z,100834.52
2022-10-26T15:56:14.018Z,100842.53
2022-10-26T16:11:05.468Z,100859.16
2022-10-26T16:25:56.972Z,100868.59
2022-10-26T16:40:47.758Z,100891.72
2022-10-26T16:55:39.097Z,100908.89
2022-10-26T17:10:30.351Z,100921.40
2022-10-26T17:25:21.633Z,100941.71
2022-10-26T17:40:12.911Z,100970.11
2022-10-26T17:55:03.300Z,100986.97
2022-10-26T18:10:33.213Z,101003.53
2022-10-26T18:25:29.740Z,101030.41
2022-10-26T18:40:50.138Z,101037.06
2022-10-26T18:55:41.136Z,101036.86
2022-10-26T19:10:32.075Z,101054.22
2022-10-26T19:25:23.392Z,101053.84
2022-10-26T19:40:15.565Z,101066.20
2022-10-26T19:55:06.540Z,101072.56
2022-10-26T20:09:58.356Z,101087.95
2022-10-26T20:24:50.162Z,101086.96
2022-10-26T20:39:41.808Z,101097.84
2022-10-26T20:54:33.748Z,101110.38
2022-10-26T21:09:26.080Z,101110.12
2022-10-26T21:24:15.898Z,101111.80
2022-10-26T21:39:10.824Z,101119.62
2022-10-26T21:54:01.956Z,101113.66
2022-10-26T22:08:52.413Z,101117.55
2022-10-26T22:23:43.551Z,101126.89
2022-10-26T22:38:34.477Z,101121.18
2022-10-26T22:53:25.737Z,101112.55
2022-10-26T23:08:17.293Z,101130.11
2022-10-26T23:23:08.182Z,101141.97
2022-10-26T23:37:58.946Z,101156.70
2022-10-26T23:52:50.465Z,101159.11
